Погода Лососинноена неделю

Республика Карелия, Россия

22 - 28 июля
  • 22июля
    Сегодня
    +16°
    +22°
    Облачно с прояснениями
    ВремяПогодаТемператураВлажностьДавлениеВетер, м/сВероятность осадков
    00:00Ясно и безоблачно+17°C73 %754 мм1.8 м/с2 %
    03:00Ясно и безоблачно+11°C86 %755 мм1.8 м/с2 %
    06:00Ясно и безоблачно+12°C87 %755 мм1.7 м/с2 %
    09:00Ясно и безоблачно+15°C71 %756 мм2.3 м/с2 %
    12:00Ясно и безоблачно+19°C56 %756 мм2.6 м/с2 %
    15:00Облачно с прояснениями+21°C49 %756 мм3.0 м/с2 %
    18:00Облачно с прояснениями+22°C56 %756 мм2.7 м/с2 %
    21:00Ясно и безоблачно+20°C72 %756 мм1.3 м/с2 %
  • 23июля
    Вторник
    +15°
    +23°
    Ясно и безоблачно
    ВремяПогодаТемператураВлажностьДавлениеВетер, м/сВероятность осадков
    00:00Ясно и безоблачно+16°C82 %757 мм1.1 м/с2 %
    03:00Ясно и безоблачно+17°C84 %757 мм1.6 м/с2 %
    06:00Ясно и безоблачно+18°C87 %757 мм1.4 м/с2 %
    09:00Ясно и безоблачно+21°C70 %757 мм1.8 м/с2 %
    12:00Ясно и безоблачно+22°C51 %757 мм2.4 м/с2 %
    15:00Ясно и безоблачно+23°C47 %757 мм3.2 м/с2 %
    18:00Ясно и безоблачно+23°C51 %756 мм2.8 м/с2 %
    21:00Ясно и безоблачно+19°C73 %756 мм1.0 м/с2 %
  • 24июля
    Среда
    +16°
    +25°
    Ясно и безоблачно
    ВремяПогодаТемператураВлажностьДавлениеВетер, м/сВероятность осадков
    00:00Ясно и безоблачно+16°C85 %756 мм0.8 м/с2 %
    03:00Практически безоблачно+16°C89 %756 мм1.0 м/с2 %
    06:00Практически безоблачно+17°C89 %756 мм0.8 м/с2 %
    09:00Ясно и безоблачно+21°C70 %756 мм1.2 м/с2 %
    12:00Ясно и безоблачно+23°C52 %755 мм1.6 м/с2 %
    15:00Ясно и безоблачно+24°C47 %755 мм2.6 м/с2 %
    18:00Ясно и безоблачно+24°C52 %754 мм2.6 м/с2 %
    21:00Ясно и безоблачно+21°C67 %754 мм0.5 м/с2 %
  • 25июля
    Четверг
    +15°
    +25°
    Небольшая облачность
    ВремяПогодаТемператураВлажностьДавлениеВетер, м/сВероятность осадков
    00:00Практически безоблачно+18°C83 %754 мм0.9 м/с2 %
    03:00Небольшая облачность+17°C85 %753 мм1.5 м/с2 %
    06:00Практически безоблачно+18°C87 %753 мм1.3 м/с2 %
    09:00Небольшая облачность+22°C79 %753 мм1.5 м/с2 %
    12:00Небольшая облачность+23°C60 %753 мм2.3 м/с16 %
    15:00Небольшая облачность+24°C56 %753 мм2.9 м/с6 %
    18:00Небольшая облачность+24°C57 %753 мм2.4 м/с2 %
    21:00Ясно и безоблачно+21°C79 %753 мм0.5 м/с3 %
  • 26июля
    Пятница
    +16°
    +25°
    Практически безоблачно
    ВремяПогодаТемператураВлажностьДавлениеВетер, м/сВероятность осадков
    00:00Ясно и безоблачно+18°C89 %753 мм1.0 м/с2 %
    03:00Практически безоблачно+17°C94 %754 мм1.1 м/с2 %
    06:00Практически безоблачно+18°C90 %754 мм1.1 м/с3 %
    09:00Ясно и безоблачно+21°C66 %754 мм1.3 м/с7 %
    12:00Практически безоблачно+24°C52 %754 мм1.7 м/с24 %
    15:00Практически безоблачно+25°C47 %754 мм2.5 м/с17 %
    18:00Практически безоблачно+23°C53 %754 мм2.4 м/с14 %
    21:00Ясно и безоблачно+20°C75 %754 мм0.5 м/с2 %
Мы используем cookies
Соглашаюсь